Time;durP1;ratioP1;P1;durP2;ratioP2;P2;SDS_P1;SDS_P2;PMS_P1;PMS_P2;Temp;Humidity;BMP_temperature;BMP_pressure;BME280_temperature;BME280_humidity;BME280_pressure;Samples;Min_cycle;Max_cycle;Signal;HPM_P1;HPM_P2
2021/09/24 00:01:28;;;;;;;13.03;8.17;;;10.30;99.90;;;;;;20656048;28;20031;-80
2021/09/24 00:11:28;;;;;;;14.10;8.03;;;10.40;99.90;;;;;;20678348;28;20030;-79
2021/09/24 00:21:29;;;;;;;101.57;10.80;;;10.50;99.90;;;;;;20659852;28;20031;-80
2021/09/24 00:31:30;;;;;;;13.77;8.80;;;10.50;99.90;;;;;;20691040;28;20027;-80
2021/09/24 00:41:31;;;;;;;16.97;7.33;;;10.60;99.90;;;;;;20690146;28;20030;-80
2021/09/24 00:51:32;;;;;;;17.23;8.83;;;10.50;99.90;;;;;;20687788;28;20034;-79
2021/09/24 01:01:33;;;;;;;16.53;8.33;;;10.20;99.90;;;;;;20684273;28;20042;-80
2021/09/24 01:11:36;;;;;;;14.77;8.53;;;10.00;99.90;;;;;;20681425;28;20467;-80
2021/09/24 01:21:41;;;;;;;14.15;8.80;;;10.00;99.90;;;;;;20682122;28;20382;-79
2021/09/24 01:31:42;;;;;;;19.33;8.90;;;9.90;99.90;;;;;;20680831;28;20050;-79
2021/09/24 01:41:45;;;;;;;31.70;13.47;;;9.80;99.90;;;;;;20661735;28;20038;-79
2021/09/24 01:51:46;;;;;;;49.95;15.77;;;9.50;99.90;;;;;;20679785;28;20038;-78
2021/09/24 02:01:47;;;;;;;38.70;14.45;;;9.70;99.90;;;;;;20677974;28;20125;-79
2021/09/24 02:11:48;;;;;;;35.70;13.87;;;9.60;99.90;;;;;;20676707;28;20022;-80
2021/09/24 02:21:49;;;;;;;21.43;10.87;;;9.60;99.90;;;;;;20677654;28;20030;-79
2021/09/24 02:31:50;;;;;;;32.90;10.37;;;9.50;99.90;;;;;;20660747;28;20038;-79
2021/09/24 02:41:51;;;;;;;20.53;9.80;;;9.60;99.90;;;;;;20697918;28;20080;-79
2021/09/24 02:51:52;;;;;;;18.10;8.60;;;9.40;99.90;;;;;;20744683;22;20041;-75
2021/09/24 03:01:55;;;;;;;11.60;7.80;;;9.30;99.90;;;;;;20759715;28;20026;-72
2021/09/24 03:11:56;;;;;;;15.80;9.38;;;9.30;99.90;;;;;;20784099;28;20037;-72
2021/09/24 03:21:57;;;;;;;37.30;10.47;;;8.80;99.90;;;;;;20824949;28;20427;-74
2021/09/24 03:31:58;;;;;;;14.87;8.03;;;9.10;99.90;;;;;;20824449;28;20120;-73
2021/09/24 03:41:58;;;;;;;15.90;7.77;;;8.80;99.90;;;;;;20824226;28;20472;-75
2021/09/24 03:52:01;;;;;;;62.53;9.20;;;8.80;99.90;;;;;;20823932;28;20407;-72
2021/09/24 04:02:02;;;;;;;11.77;7.30;;;9.00;99.90;;;;;;20833754;28;20408;-72
2021/09/24 04:12:04;;;;;;;12.47;6.90;;;8.80;99.90;;;;;;20839061;28;20128;-73
2021/09/24 04:22:05;;;;;;;10.48;6.53;;;8.70;99.90;;;;;;20838237;28;20559;-72
2021/09/24 04:32:07;;;;;;;38.97;8.23;;;8.60;99.90;;;;;;20837593;28;20045;-72
2021/09/24 04:42:08;;;;;;;35.20;8.02;;;8.40;99.90;;;;;;20836664;28;20048;-72
2021/09/24 04:52:08;;;;;;;58.73;9.20;;;8.30;99.90;;;;;;20836469;28;20452;-72
2021/09/24 05:02:09;;;;;;;14.40;8.33;;;8.40;99.90;;;;;;20835409;28;20422;-72
2021/09/24 05:12:10;;;;;;;24.77;8.73;;;8.30;99.90;;;;;;20833687;28;20392;-74
2021/09/24 05:22:11;;;;;;;18.87;8.50;;;8.00;99.90;;;;;;20816045;28;20040;-72
2021/09/24 05:32:14;;;;;;;14.73;9.03;;;8.10;99.90;;;;;;20815492;28;20033;-75
2021/09/24 05:42:15;;;;;;;65.35;13.82;;;8.10;99.90;;;;;;20832277;28;20479;-72
2021/09/24 05:52:16;;;;;;;48.27;13.70;;;8.30;99.90;;;;;;20831534;28;20064;-73
2021/09/24 06:02:17;;;;;;;153.87;16.17;;;8.80;99.90;;;;;;20830788;28;20104;-74
2021/09/24 06:12:18;;;;;;;482.27;33.33;;;9.10;99.90;;;;;;20829902;28;20035;-73
2021/09/24 06:22:19;;;;;;;41.47;11.43;;;9.30;99.90;;;;;;20828658;28;20057;-72
2021/09/24 06:32:21;;;;;;;195.07;20.10;;;9.50;99.90;;;;;;20828458;28;20446;-72
2021/09/24 06:42:22;;;;;;;177.35;18.20;;;9.70;99.90;;;;;;20827805;28;20029;-73
2021/09/24 06:52:23;;;;;;;490.90;29.33;;;9.70;99.90;;;;;;20825641;28;20117;-73
2021/09/24 07:02:25;;;;;;;315.08;24.45;;;10.00;99.90;;;;;;20826430;28;20499;-73
2021/09/24 07:12:26;;;;;;;;;;;10.20;99.90;;;;;;20827524;28;20442;-72
2021/09/24 07:22:27;;;;;;;65.35;15.55;;;10.30;99.90;;;;;;20825670;28;20004;-72
2021/09/24 07:32:28;;;;;;;469.92;29.52;;;10.70;99.90;;;;;;20826162;28;20029;-75
2021/09/24 07:42:29;;;;;;;131.20;21.60;;;10.70;99.90;;;;;;20823355;28;20115;-73
2021/09/24 07:52:31;;;;;;;29.23;15.67;;;11.00;99.90;;;;;;20840582;28;20086;-73
2021/09/24 08:02:32;;;;;;;53.95;16.98;;;11.60;99.90;;;;;;20839799;28;20395;-73
2021/09/24 08:12:33;;;;;;;32.60;16.53;;;11.90;99.90;;;;;;20839298;28;20029;-73
2021/09/24 08:22:38;;;;;;;45.40;15.17;;;12.10;99.90;;;;;;20838325;28;20040;-73
2021/09/24 08:32:39;;;;;;;26.02;14.55;;;12.20;99.90;;;;;;20837664;28;20037;-74
2021/09/24 08:42:41;;;;;;;36.03;15.07;;;12.60;99.90;;;;;;20836629;28;20052;-73
2021/09/24 08:52:42;;;;;;;40.70;16.48;;;12.60;99.90;;;;;;20832262;22;20042;-78
2021/09/24 09:02:59;;;;;;;26.90;15.53;;;12.40;99.90;;;;;;20740462;28;20034;-78
2021/09/24 09:13:08;;;;;;;25.55;14.43;;;13.20;99.90;;;;;;20684711;28;20452;-78
2021/09/24 09:23:11;;;;;;;21.27;13.55;;;13.60;99.90;;;;;;20667406;28;20382;-78
2021/09/24 09:33:15;;;;;;;21.00;13.73;;;14.60;99.90;;;;;;20684530;28;20069;-78
2021/09/24 09:43:21;;;;;;;17.33;11.48;;;16.30;99.90;;;;;;20680423;28;20038;-77
2021/09/24 09:53:22;;;;;;;20.98;11.38;;;18.40;99.90;;;;;;20680015;28;20034;-79
2021/09/24 10:03:35;;;;;;;16.05;10.60;;;18.50;99.90;;;;;;20679654;28;20088;-78
2021/09/24 10:13:52;;;;;;;16.73;10.75;;;18.30;99.90;;;;;;20673553;28;20022;-78
2021/09/24 10:23:55;;;;;;;14.75;9.85;;;20.70;99.90;;;;;;20658002;28;20034;-78
2021/09/24 10:34:01;;;;;;;14.27;10.77;;;21.90;99.90;;;;;;20677420;28;20420;-79
2021/09/24 10:44:01;;;;;;;14.63;9.55;;;20.90;99.90;;;;;;20676398;28;20079;-80
2021/09/24 10:54:15;;;;;;;11.40;8.53;;;22.10;99.90;;;;;;20697218;28;20125;-79
2021/09/24 11:04:16;;;;;;;14.80;7.85;;;23.10;99.90;;;;;;20717095;28;20428;-80
2021/09/24 11:14:33;;;;;;;7.77;5.20;;;23.50;99.90;;;;;;20671634;28;20030;-78
2021/09/24 11:24:37;;;;;;;9.57;5.75;;;23.30;99.90;;;;;;20674832;28;20122;-78
2021/09/24 11:34:43;;;;;;;5.88;3.78;;;23.60;99.90;;;;;;20691666;28;20541;-78
2021/09/24 11:44:47;;;;;;;5.38;4.20;;;22.80;99.90;;;;;;20672494;28;20550;-80
2021/09/24 11:54:48;;;;;;;5.03;3.80;;;23.20;99.90;;;;;;20637352;28;20042;-78
2021/09/24 12:05:04;;;;;;;6.33;3.90;;;23.10;99.90;;;;;;20663126;28;20134;-77
2021/09/24 12:15:06;;;;;;;3.80;2.80;;;23.70;99.90;;;;;;20671937;28;20057;-78
2021/09/24 12:25:15;;;;;;;3.83;3.17;;;23.00;99.90;;;;;;20672574;28;20046;-78
2021/09/24 12:35:16;;;;;;;4.55;3.50;;;23.00;99.90;;;;;;20688842;28;20038;-77
2021/09/24 12:45:25;;;;;;;4.93;3.83;;;23.40;99.90;;;;;;20683725;28;20034;-77
2021/09/24 12:55:27;;;;;;;6.88;3.78;;;23.10;99.90;;;;;;20667626;28;20053;-77
2021/09/24 13:05:27;;;;;;;;;;;23.10;99.90;;;;;;20666180;28;20756;-78
2021/09/24 13:15:29;;;;;;;5.80;3.77;;;23.70;99.90;;;;;;20659775;28;19913;-77
2021/09/24 13:25:29;;;;;;;4.30;3.35;;;23.40;99.90;;;;;;20663975;28;20300;-78
2021/09/24 13:35:30;;;;;;;5.17;4.10;;;23.60;99.90;;;;;;20660132;28;20611;-78
2021/09/24 13:45:32;;;;;;;6.43;3.83;;;23.70;99.90;;;;;;20666295;28;20441;-79
2021/09/24 13:55:33;;;;;;;6.68;3.33;;;23.50;99.90;;;;;;20744005;28;20029;-78
2021/09/24 14:05:33;;;;;;;10.63;3.30;;;23.80;99.90;;;;;;20722918;28;20038;-79
2021/09/24 14:15:34;;;;;;;3.87;3.37;;;24.20;99.90;;;;;;20743997;28;20536;-77
2021/09/24 14:25:36;;;;;;;5.37;3.20;;;24.10;99.90;;;;;;20734247;28;20034;-78
2021/09/24 14:35:37;;;;;;;3.65;3.13;;;23.70;99.90;;;;;;20737059;28;20061;-77
2021/09/24 14:45:39;;;;;;;3.97;2.72;;;24.30;99.90;;;;;;20672151;28;20050;-78
2021/09/24 14:55:40;;;;;;;7.15;3.13;;;24.50;99.90;;;;;;20543207;28;1139817;-78
2021/09/24 15:05:41;;;;;;;6.73;3.07;;;24.10;99.90;;;;;;20600146;28;20088;-78
2021/09/24 15:15:42;;;;;;;8.30;3.27;;;23.90;99.90;;;;;;20596647;28;20070;-79
2021/09/24 15:25:44;;;;;;;5.13;3.47;;;23.90;99.90;;;;;;20657093;28;20029;-78
2021/09/24 15:35:46;;;;;;;3.55;3.17;;;23.90;99.90;;;;;;20644461;28;20277;-76
2021/09/24 15:45:47;;;;;;;5.15;2.85;;;23.80;99.90;;;;;;20692028;28;20037;-78
2021/09/24 15:55:47;;;;;;;;;;;23.70;99.90;;;;;;20661749;28;20461;-78
2021/09/24 16:05:49;;;;;;;4.00;2.70;;;23.20;99.90;;;;;;20665425;28;20171;-80
2021/09/24 16:15:49;;;;;;;;;;;22.90;99.90;;;;;;20671486;28;20797;-79
2021/09/24 16:25:52;;;;;;;10.17;3.00;;;22.40;99.90;;;;;;20685837;28;19917;-78
2021/09/24 16:35:53;;;;;;;2.83;2.25;;;21.30;99.90;;;;;;20724355;28;20598;-78
2021/09/24 16:45:54;;;;;;;4.90;2.33;;;21.20;99.90;;;;;;20664201;28;20121;-78
2021/09/24 16:55:56;;;;;;;3.72;2.72;;;20.70;99.90;;;;;;20641345;28;20576;-80
2021/09/24 17:05:57;;;;;;;4.85;2.92;;;19.90;99.90;;;;;;20656948;28;20034;-80
2021/09/24 17:15:58;;;;;;;7.50;3.73;;;18.90;99.90;;;;;;20655142;28;20037;-79
2021/09/24 17:25:59;;;;;;;8.97;4.93;;;18.10;99.90;;;;;;20657386;28;20046;-78
2021/09/24 17:36:00;;;;;;;9.23;4.13;;;17.30;99.90;;;;;;20693271;28;20195;-79
2021/09/24 17:46:01;;;;;;;;;;;17.00;99.90;;;;;;20714786;28;20122;-79
2021/09/24 17:56:02;;;;;;;5.90;3.53;;;16.50;99.90;;;;;;20692916;28;19925;-78
2021/09/24 18:06:03;;;;;;;11.30;4.33;;;16.20;99.90;;;;;;20703717;28;20313;-78
2021/09/24 18:16:05;;;;;;;5.68;3.90;;;15.30;99.90;;;;;;20737115;28;20033;-78
2021/09/24 18:26:06;;;;;;;12.03;4.90;;;15.80;99.90;;;;;;20763481;28;20042;-78
2021/09/24 18:36:08;;;;;;;8.57;4.73;;;14.90;99.90;;;;;;20743344;28;20042;-78
2021/09/24 18:46:09;;;;;;;5.53;3.70;;;14.60;99.90;;;;;;20665851;28;20036;-77
2021/09/24 18:56:10;;;;;;;9.13;3.47;;;13.70;99.90;;;;;;20664280;28;20077;-78
2021/09/24 19:06:11;;;;;;;4.07;3.03;;;14.20;99.90;;;;;;20640431;28;20065;-78
2021/09/24 19:16:12;;;;;;;7.10;4.17;;;14.10;99.90;;;;;;20646203;28;20415;-78
2021/09/24 19:26:15;;;;;;;7.03;4.00;;;13.30;99.90;;;;;;20684814;28;20061;-78
2021/09/24 19:36:17;;;;;;;10.88;3.40;;;13.20;99.90;;;;;;20722938;28;20076;-78
2021/09/24 19:46:19;;;;;;;7.97;4.30;;;13.20;99.90;;;;;;20627762;28;20560;-79
2021/09/24 19:56:20;;;;;;;8.23;5.22;;;13.00;99.90;;;;;;20659569;28;20034;-79
2021/09/24 20:06:21;;;;;;;6.10;4.03;;;12.70;99.90;;;;;;20643000;28;20038;-77
2021/09/24 20:16:22;;;;;;;9.83;4.40;;;12.70;99.90;;;;;;20640166;28;20045;-77
2021/09/24 20:26:22;;;;;;;6.83;4.43;;;12.40;99.90;;;;;;20639769;28;20038;-77
2021/09/24 20:36:23;;;;;;;5.87;4.47;;;12.50;99.90;;;;;;20639774;28;20026;-77
2021/09/24 20:46:24;;;;;;;7.73;4.97;;;12.30;99.90;;;;;;20673729;28;20099;-77
2021/09/24 20:56:25;;;;;;;7.20;4.83;;;12.20;99.90;;;;;;20718222;28;20512;-78
2021/09/24 21:06:26;;;;;;;9.70;4.53;;;11.90;99.90;;;;;;20716720;28;20061;-77
2021/09/24 21:16:27;;;;;;;7.93;5.17;;;11.60;99.90;;;;;;20720993;28;20042;-79
2021/09/24 21:26:28;;;;;;;15.10;5.33;;;11.40;99.90;;;;;;20741748;28;20475;-78
2021/09/24 21:36:29;;;;;;;10.20;5.53;;;11.40;99.90;;;;;;20743070;28;20063;-79
2021/09/24 21:46:32;;;;;;;6.43;4.10;;;11.50;99.90;;;;;;20644412;28;20038;-78
2021/09/24 21:56:32;;;;;;;9.15;5.13;;;11.10;99.90;;;;;;20655789;28;20497;-78
2021/09/24 22:06:33;;;;;;;7.37;4.40;;;11.20;99.90;;;;;;20650504;28;20103;-78
2021/09/24 22:16:34;;;;;;;9.33;4.80;;;11.20;99.90;;;;;;20646928;28;20108;-77
2021/09/24 22:26:35;;;;;;;10.80;4.63;;;10.90;99.90;;;;;;20646260;28;20038;-77
2021/09/24 22:36:38;;;;;;;6.43;4.37;;;10.90;99.90;;;;;;20629757;28;20034;-77
2021/09/24 22:46:39;;;;;;;8.02;4.40;;;11.30;99.90;;;;;;20645862;28;20061;-78
2021/09/24 22:56:40;;;;;;;8.63;5.63;;;11.40;99.90;;;;;;20653507;28;20089;-77
2021/09/24 23:06:41;;;;;;;7.17;5.00;;;11.70;99.90;;;;;;20643854;28;20042;-78
2021/09/24 23:16:42;;;;;;;7.43;4.00;;;11.70;99.90;;;;;;20642687;28;20583;-79
2021/09/24 23:26:43;;;;;;;8.17;4.43;;;11.40;99.90;;;;;;20639684;28;20034;-79
2021/09/24 23:36:44;;;;;;;9.10;4.40;;;11.20;99.90;;;;;;20650292;28;20030;-78
2021/09/24 23:46:44;;;;;;;7.70;4.80;;;11.20;99.90;;;;;;20649222;28;20045;-77
2021/09/24 23:56:45;;;;;;;6.83;4.17;;;11.40;99.90;;;;;;20627147;28;20563;-78
